createdAt,value
2022-10-30T00:05:58.844Z,101516.91
2022-10-30T00:13:34.045Z,101504.25
2022-10-30T00:21:09.183Z,101496.09
2022-10-30T00:28:44.252Z,101499.56
2022-10-30T00:36:17.697Z,101497.69
2022-10-30T00:43:53.462Z,101488.66
2022-10-30T00:51:30.064Z,101473.44
2022-10-30T00:59:09.167Z,101467.06
2022-10-30T01:06:48.179Z,101469.69
2022-10-30T01:14:23.316Z,101474.88
2022-10-30T01:22:07.956Z,101463.19
2022-10-30T01:29:56.368Z,101475.56
2022-10-30T01:37:35.529Z,101462.03
2022-10-30T01:45:16.432Z,101461.97
2022-10-30T01:52:57.704Z,101450.25
2022-10-30T02:00:33.364Z,101451.06
2022-10-30T02:08:07.395Z,101450.06
2022-10-30T02:15:43.717Z,101451.81
2022-10-30T02:23:20.763Z,101449.09
2022-10-30T02:30:54.493Z,101440.06
2022-10-30T02:38:29.865Z,101435.47
2022-10-30T02:46:03.579Z,101432.72
2022-10-30T02:53:38.983Z,101429.94
2022-10-30T03:01:14.975Z,101436.09
2022-10-30T03:08:50.200Z,101447.72
2022-10-30T03:16:29.362Z,101458.41
2022-10-30T03:24:04.738Z,101456.50
2022-10-30T03:31:38.448Z,101436.78
2022-10-30T03:39:13.513Z,101426.88
2022-10-30T03:46:47.205Z,101402.72
2022-10-30T03:54:24.509Z,101374.09
2022-10-30T04:01:58.291Z,101361.78
2022-10-30T04:09:33.441Z,101409.00
2022-10-30T04:17:07.137Z,101390.34
2022-10-30T04:24:42.324Z,101401.00
2022-10-30T04:32:15.954Z,101414.38
2022-10-30T04:39:50.874Z,101425.06
2022-10-30T04:47:24.612Z,101419.75
2022-10-30T04:54:59.683Z,101410.81
2022-10-30T05:02:33.272Z,101411.63
2022-10-30T05:10:12.107Z,101421.50
2022-10-30T05:17:45.678Z,101417.06
2022-10-30T05:25:20.641Z,101407.31
2022-10-30T05:32:58.600Z,101390.16
2022-10-30T05:40:34.828Z,101398.31
2022-10-30T05:48:09.000Z,101436.13
2022-10-30T05:55:43.947Z,101372.75
2022-10-30T06:03:17.865Z,101393.31
2022-10-30T06:10:55.295Z,101387.94
2022-10-30T06:18:28.884Z,101388.88
2022-10-30T06:26:03.936Z,101378.16
2022-10-30T06:33:37.335Z,101380.88
2022-10-30T06:41:12.285Z,101372.00
2022-10-30T06:48:45.736Z,101374.72
2022-10-30T06:56:20.704Z,101390.84
2022-10-30T07:03:54.174Z,101388.19
2022-10-30T07:11:29.195Z,101373.06
2022-10-30T07:19:04.583Z,101391.97
2022-10-30T07:26:39.811Z,101418.06
2022-10-30T07:34:13.457Z,101415.50
2022-10-30T07:41:50.243Z,101400.53
2022-10-30T07:49:24.377Z,101409.78
2022-10-30T07:56:59.447Z,101397.41
2022-10-30T08:04:33.404Z,101416.25
2022-10-30T08:12:09.034Z,101421.94
2022-10-30T08:19:42.866Z,101434.78
2022-10-30T08:27:17.803Z,101427.97
2022-10-30T08:34:51.476Z,101429.97
2022-10-30T08:42:26.527Z,101425.69
2022-10-30T08:50:00.226Z,101427.53
2022-10-30T08:57:38.397Z,101429.44
2022-10-30T09:05:12.713Z,101425.94
2022-10-30T09:12:47.707Z,101414.44
2022-10-30T09:20:21.523Z,101404.69
2022-10-30T09:27:56.522Z,101412.88
2022-10-30T09:35:30.121Z,101394.97
2022-10-30T09:43:15.386Z,101404.00
2022-10-30T09:50:57.844Z,101417.56
2022-10-30T09:58:37.297Z,101424.78
2022-10-30T10:06:18.426Z,101419.38
2022-10-30T10:13:57.416Z,101416.59
2022-10-30T10:21:36.172Z,101426.53
2022-10-30T10:29:34.092Z,101419.25
2022-10-30T10:37:17.393Z,101420.94
2022-10-30T10:45:04.270Z,101409.16
2022-10-30T10:52:41.840Z,101400.00
2022-10-30T11:00:20.029Z,101392.81
2022-10-30T11:07:59.708Z,101391.84
2022-10-30T11:15:47.147Z,101393.44
2022-10-30T11:23:35.295Z,101397.94
2022-10-30T11:31:24.752Z,101394.13
2022-10-30T11:39:09.993Z,101388.66
2022-10-30T11:46:45.102Z,101385.84
2022-10-30T11:54:22.642Z,101391.22
2022-10-30T12:02:03.023Z,101384.78
2022-10-30T12:09:43.134Z,101386.56
2022-10-30T12:17:19.807Z,101397.28
2022-10-30T12:24:53.787Z,101389.94
2022-10-30T12:32:39.676Z,101393.44
2022-10-30T12:40:17.842Z,101385.19
2022-10-30T12:47:59.337Z,101382.38
2022-10-30T12:55:38.177Z,101379.59
2022-10-30T13:03:25.020Z,101375.72
2022-10-30T13:11:06.326Z,101368.47
2022-10-30T13:18:41.438Z,101363.94
2022-10-30T13:26:25.171Z,101369.38
2022-10-30T13:34:08.177Z,101358.59
2022-10-30T13:41:52.159Z,101361.25
2022-10-30T13:49:45.639Z,101363.13
2022-10-30T13:57:26.262Z,101363.16
2022-10-30T14:05:15.704Z,101359.53
2022-10-30T14:12:54.269Z,101364.16
2022-10-30T14:20:29.947Z,101357.09
2022-10-30T14:28:03.872Z,101368.97
2022-10-30T14:36:14.393Z,101362.91
2022-10-30T14:43:58.013Z,101368.53
2022-10-30T14:51:38.320Z,101374.13
2022-10-30T14:59:24.488Z,101370.75
2022-10-30T15:07:07.459Z,101370.00
2022-10-30T15:15:00.497Z,101359.31
2022-10-30T15:22:37.012Z,101362.19
2022-10-30T15:30:18.188Z,101361.41
2022-10-30T15:38:01.621Z,101375.00
2022-10-30T15:45:37.170Z,101373.31
2022-10-30T15:53:20.352Z,101367.97
2022-10-30T16:00:58.575Z,101376.09
2022-10-30T16:08:44.645Z,101370.78
2022-10-30T16:16:23.070Z,101362.69
2022-10-30T16:24:00.930Z,101365.41
2022-10-30T16:31:37.055Z,101372.59
2022-10-30T16:39:16.706Z,101375.28
2022-10-30T16:46:52.693Z,101373.44
2022-10-30T16:54:31.704Z,101382.38
2022-10-30T17:02:13.713Z,101384.16
2022-10-30T17:09:52.290Z,101392.19
2022-10-30T17:17:29.610Z,101391.19
2022-10-30T17:25:16.568Z,101401.03
2022-10-30T17:32:54.622Z,101408.06
2022-10-30T17:40:29.629Z,101399.00
2022-10-30T17:48:04.104Z,101408.78
2022-10-30T17:55:40.484Z,101406.91
2022-10-30T18:03:14.197Z,101405.00
2022-10-30T18:10:49.281Z,101413.91
2022-10-30T18:18:22.778Z,101414.69
2022-10-30T18:25:57.826Z,101417.28
2022-10-30T18:33:31.458Z,101417.16
2022-10-30T18:41:07.211Z,101418.81
2022-10-30T18:48:41.163Z,101412.38
2022-10-30T18:56:16.473Z,101412.25
2022-10-30T19:03:50.617Z,101413.06
2022-10-30T19:11:26.799Z,101415.63
2022-10-30T19:19:01.969Z,101403.84
2022-10-30T19:26:37.155Z,101409.16
2022-10-30T19:34:10.859Z,101400.06
2022-10-30T19:41:45.811Z,101392.78
2022-10-30T19:49:21.487Z,101397.19
2022-10-30T19:56:56.418Z,101392.63
2022-10-30T20:04:30.086Z,101402.34
2022-10-30T20:12:06.086Z,101403.97
2022-10-30T20:19:42.252Z,101406.47
2022-10-30T20:27:17.249Z,101410.84
2022-10-30T20:34:50.739Z,101425.91
2022-10-30T20:42:26.529Z,101433.78
2022-10-30T20:50:00.592Z,101441.63
2022-10-30T21:05:30.621Z,101431.53
2022-10-30T21:13:11.072Z,101434.94
2022-10-30T21:20:45.052Z,101428.59
2022-10-30T21:28:20.008Z,101429.28
2022-10-30T21:35:53.507Z,101426.50
2022-10-30T21:43:28.504Z,101430.84
2022-10-30T21:51:09.595Z,101436.13
2022-10-30T21:58:44.671Z,101438.63
2022-10-30T22:06:20.261Z,101440.31
2022-10-30T22:13:56.372Z,101446.44
2022-10-30T22:21:30.763Z,101440.03
2022-10-30T22:29:05.758Z,101436.25
2022-10-30T22:36:39.312Z,101444.19
2022-10-30T22:44:17.388Z,101443.19
2022-10-30T22:51:51.542Z,101440.34
2022-10-30T22:59:26.687Z,101433.91
2022-10-30T23:07:00.376Z,101441.78
2022-10-30T23:14:35.622Z,101450.59
2022-10-30T23:22:09.258Z,101462.03
2022-10-30T23:29:44.170Z,101467.28
2022-10-30T23:37:17.680Z,101452.88
2022-10-30T23:44:52.634Z,101454.47
2022-10-30T23:52:26.552Z,101464.09
